Time;durP1;ratioP1;P1;durP2;ratioP2;P2;SDS_P1;SDS_P2;PMS_P1;PMS_P2;Temp;Humidity;BMP_temperature;BMP_pressure;BME280_temperature;BME280_humidity;BME280_pressure;Samples;Min_cycle;Max_cycle;Signal;HPM_P1;HPM_P2
2022/02/04 00:21:29;;;;;;;2.15;1.05;;;9.50;99.90;;;;;;5035332;28;20072;-59
2022/02/04 00:23:58;;;;;;;8.73;1.20;;;9.50;99.90;;;;;;5041681;28;20084;-60
2022/02/04 00:26:31;;;;;;;5.35;1.27;;;9.50;99.90;;;;;;5048183;28;20482;-60
2022/02/04 00:31:34;;;;;;;4.78;0.95;;;9.50;99.90;;;;;;5037316;28;20128;-60
2022/02/04 00:34:08;;;;;;;4.13;1.20;;;9.60;99.90;;;;;;5039413;28;20084;-60
2022/02/04 00:36:48;;;;;;;6.82;1.20;;;9.60;99.90;;;;;;5036196;28;20064;-60
2022/02/04 00:39:22;;;;;;;4.10;1.13;;;9.60;99.90;;;;;;5035953;28;20041;-61
2022/02/04 00:41:50;;;;;;;;;;;9.60;99.90;;;;;;5035211;28;20045;-61
2022/02/04 00:44:24;;;;;;;3.88;1.15;;;9.60;99.90;;;;;;5038895;28;20008;-60
2022/02/04 00:49:26;;;;;;;4.07;1.17;;;9.60;99.80;;;;;;5037906;28;19971;-61
2022/02/04 00:54:40;;;;;;;8.75;1.05;;;9.60;99.70;;;;;;5041643;28;20080;-60
2022/02/04 01:27:36;;;;;;;4.45;1.05;;;9.60;99.90;;;;;;5018616;28;20045;-60
2022/02/04 01:30:15;;;;;;;3.80;1.08;;;9.50;99.60;;;;;;5038530;28;20554;-59
2022/02/04 01:32:42;;;;;;;4.60;0.95;;;9.60;99.70;;;;;;5029767;28;20096;-60
2022/02/04 01:35:09;;;;;;;4.68;1.02;;;9.60;99.60;;;;;;5044467;28;20045;-60
2022/02/04 01:37:36;;;;;;;3.75;1.05;;;9.60;99.70;;;;;;5033576;28;20049;-60
2022/02/04 01:40:04;;;;;;;10.73;2.10;;;9.60;99.60;;;;;;5034019;28;20041;-59
2022/02/04 01:42:30;;;;;;;3.25;1.10;;;9.60;99.70;;;;;;5035935;28;20099;-58
2022/02/04 01:44:57;;;;;;;4.57;0.98;;;9.60;99.70;;;;;;5032997;28;20079;-59
2022/02/04 01:47:25;;;;;;;4.07;0.60;;;9.60;99.70;;;;;;5039400;28;20132;-62
2022/02/04 01:49:52;;;;;;;12.60;1.60;;;9.60;99.70;;;;;;5044373;28;20114;-59
2022/02/04 01:52:18;;;;;;;3.28;1.00;;;9.60;99.90;;;;;;5021785;28;20088;-59
2022/02/04 01:54:45;;;;;;;2.95;1.10;;;9.60;99.90;;;;;;5011930;28;20165;-59
2022/02/04 01:57:12;;;;;;;6.15;1.20;;;9.60;99.90;;;;;;5037173;28;20077;-59
2022/02/04 01:59:39;;;;;;;6.20;1.30;;;9.60;99.90;;;;;;5037158;28;20087;-59
2022/02/04 02:02:06;;;;;;;6.75;1.67;;;9.60;99.90;;;;;;5033641;28;20107;-59
2022/02/04 02:04:33;;;;;;;6.72;1.00;;;9.60;99.90;;;;;;5018522;28;20124;-60
2022/02/04 02:07:04;;;;;;;7.15;1.30;;;9.60;99.90;;;;;;5039533;28;20083;-59
2022/02/04 02:09:51;;;;;;;7.05;1.23;;;9.60;99.90;;;;;;5047185;28;20530;-60
2022/02/04 02:12:20;;;;;;;4.30;1.13;;;9.60;99.90;;;;;;5018136;28;20087;-60
2022/02/04 02:14:56;;;;;;;5.78;0.88;;;9.60;99.90;;;;;;5030704;28;20144;-60
2022/02/04 02:42:17;;;;;;;2.58;1.20;;;9.60;99.90;;;;;;5019726;28;20049;-59
2022/02/04 02:48:11;;;;;;;10.18;1.35;;;9.60;99.90;;;;;;5021606;28;20102;-59
2022/02/04 02:53:36;;;;;;;6.18;1.05;;;9.60;99.90;;;;;;5034486;28;20152;-59
2022/02/04 02:58:50;;;;;;;17.52;4.03;;;9.40;99.90;;;;;;5041754;28;20068;-59
2022/02/04 03:01:19;;;;;;;4.70;1.20;;;9.30;99.90;;;;;;5046463;28;20706;-59
2022/02/04 03:03:51;;;;;;;4.72;1.38;;;9.30;99.90;;;;;;5033874;28;20045;-59
2022/02/04 03:06:18;;;;;;;5.45;1.48;;;9.30;99.90;;;;;;5034314;28;20499;-59
2022/02/04 03:08:45;;;;;;;6.82;1.27;;;9.30;99.90;;;;;;5031484;28;20046;-60
2022/02/04 03:11:12;;;;;;;5.75;0.93;;;9.30;99.90;;;;;;5043610;28;20052;-59
2022/02/04 03:13:41;;;;;;;11.98;1.17;;;9.30;99.90;;;;;;5031055;28;20216;-59
2022/02/04 03:16:14;;;;;;;5.53;1.13;;;9.30;99.90;;;;;;5035874;28;20052;-59
2022/02/04 03:18:43;;;;;;;3.45;1.00;;;9.30;99.90;;;;;;5037259;28;20143;-59
2022/02/04 03:21:15;;;;;;;8.05;1.00;;;9.30;99.90;;;;;;5037991;28;20111;-59
2022/02/04 03:23:46;;;;;;;7.60;2.75;;;9.30;99.90;;;;;;5031387;28;20045;-59
2022/02/04 03:26:23;;;;;;;5.53;0.95;;;9.30;99.90;;;;;;5031507;28;20457;-59
2022/02/04 03:28:49;;;;;;;3.47;1.15;;;9.30;99.90;;;;;;5033358;28;20095;-59
2022/02/04 03:31:16;;;;;;;5.93;1.33;;;9.30;99.90;;;;;;5039386;28;20057;-59
2022/02/04 03:33:45;;;;;;;4.85;1.00;;;9.30;99.90;;;;;;5038165;28;20103;-59
2022/02/04 03:36:12;;;;;;;14.02;1.52;;;9.30;99.90;;;;;;5038090;28;20079;-59
2022/02/04 03:38:38;;;;;;;6.07;1.02;;;9.30;99.90;;;;;;5032810;28;20077;-59
2022/02/04 03:41:07;;;;;;;13.52;1.48;;;9.20;99.90;;;;;;5037878;28;20064;-60
2022/02/04 03:43:34;;;;;;;8.98;1.20;;;9.30;99.90;;;;;;5036673;28;20815;-59
2022/02/04 03:46:01;;;;;;;9.85;1.20;;;9.20;99.90;;;;;;5039504;28;20041;-59
2022/02/04 03:48:28;;;;;;;6.07;1.33;;;9.30;99.90;;;;;;5029839;28;20573;-59
2022/02/04 03:50:55;;;;;;;7.00;1.52;;;9.30;99.90;;;;;;5031365;28;20080;-59
2022/02/04 03:53:21;;;;;;;10.05;1.17;;;9.40;99.90;;;;;;5029662;28;20100;-59
2022/02/04 03:55:48;;;;;;;6.25;1.35;;;9.40;99.90;;;;;;5045902;28;20548;-59
2022/02/04 03:58:15;;;;;;;9.30;1.60;;;9.40;99.90;;;;;;5024127;28;20056;-60
2022/02/04 04:00:42;;;;;;;7.60;1.88;;;9.40;99.90;;;;;;5037978;28;20041;-59
2022/02/04 04:03:09;;;;;;;9.68;1.25;;;9.40;99.90;;;;;;5041550;28;20054;-59
2022/02/04 04:05:39;;;;;;;4.40;0.98;;;9.40;99.90;;;;;;5037983;28;20088;-59
2022/02/04 04:08:05;;;;;;;5.78;0.85;;;9.40;99.90;;;;;;5040288;28;20563;-59
2022/02/04 04:10:38;;;;;;;7.53;1.05;;;9.40;99.90;;;;;;5041252;28;20071;-59
2022/02/04 04:13:06;;;;;;;6.22;1.27;;;9.40;99.90;;;;;;5036406;28;20076;-59
2022/02/04 04:15:33;;;;;;;2.92;1.05;;;9.40;99.90;;;;;;5039394;28;20091;-59
2022/02/04 04:18:00;;;;;;;7.18;1.17;;;9.50;99.90;;;;;;5033408;28;20053;-58
2022/02/04 04:20:27;;;;;;;13.90;1.52;;;9.40;99.90;;;;;;5014428;28;21036;-58
2022/02/04 04:22:54;;;;;;;5.57;1.02;;;9.40;99.90;;;;;;5041755;28;20076;-59
2022/02/04 04:25:21;;;;;;;10.93;1.13;;;9.50;99.90;;;;;;5036134;28;20073;-59
2022/02/04 04:27:49;;;;;;;11.15;1.45;;;9.50;99.90;;;;;;5039287;28;20534;-59
2022/02/04 04:30:17;;;;;;;7.07;1.40;;;9.50;99.90;;;;;;5037415;28;20124;-59
2022/02/04 04:32:44;;;;;;;10.07;2.53;;;9.40;99.90;;;;;;5016799;28;20089;-59
2022/02/04 04:35:12;;;;;;;4.43;1.55;;;9.50;99.90;;;;;;5035170;28;20041;-59
2022/02/04 04:37:59;;;;;;;12.40;1.50;;;9.50;99.90;;;;;;5035584;28;20131;-59
2022/02/04 05:31:32;;;;;;;9.25;1.23;;;9.60;99.90;;;;;;5041375;28;20095;-58
2022/02/04 05:34:00;;;;;;;7.35;2.20;;;9.60;99.90;;;;;;5034902;28;20188;-58
2022/02/04 05:36:26;;;;;;;9.38;1.58;;;9.50;99.90;;;;;;5033748;28;20487;-60
2022/02/04 05:38:54;;;;;;;6.38;1.48;;;9.60;99.90;;;;;;5040276;28;20049;-59
2022/02/04 05:41:28;;;;;;;9.50;1.65;;;9.60;99.90;;;;;;5047199;28;20046;-59
2022/02/04 05:43:58;;;;;;;8.65;1.40;;;9.50;99.90;;;;;;5034028;28;20119;-58
2022/02/04 05:46:29;;;;;;;8.43;1.25;;;9.60;99.90;;;;;;5039196;28;20110;-58
2022/02/04 05:48:58;;;;;;;8.60;1.55;;;9.50;99.90;;;;;;5035114;28;20076;-58
2022/02/04 05:54:00;;;;;;;4.90;0.82;;;9.50;99.90;;;;;;5033435;28;20512;-58
2022/02/04 06:07:09;;;;;;;8.70;1.42;;;9.50;99.90;;;;;;5036528;28;20081;-58
2022/02/04 06:23:12;;;;;;;14.68;1.80;;;9.40;99.90;;;;;;5037507;28;20080;-59
2022/02/04 06:25:39;;;;;;;7.30;1.88;;;9.30;99.90;;;;;;5032841;28;20102;-59
2022/02/04 06:28:06;;;;;;;11.85;1.42;;;9.30;99.90;;;;;;5024395;28;20174;-58
2022/02/04 06:30:33;;;;;;;14.00;1.65;;;9.30;99.90;;;;;;5015349;28;20111;-59
2022/02/04 06:33:00;;;;;;;13.48;2.05;;;9.30;99.90;;;;;;5034713;28;20049;-58
2022/02/04 06:35:27;;;;;;;5.03;1.20;;;9.30;99.90;;;;;;5035196;28;20091;-58
2022/02/04 06:37:54;;;;;;;10.73;1.88;;;9.30;99.90;;;;;;5016206;28;20048;-58
2022/02/04 06:40:20;;;;;;;14.90;2.40;;;9.20;99.90;;;;;;5037968;28;20045;-59
2022/02/04 06:42:47;;;;;;;13.18;2.05;;;9.30;99.90;;;;;;5039679;28;20079;-59
2022/02/04 06:45:14;;;;;;;16.25;4.30;;;9.30;99.90;;;;;;5037402;28;20484;-59
2022/02/04 06:47:43;;;;;;;8.63;1.75;;;9.30;99.90;;;;;;5039485;28;20072;-58
2022/02/04 06:50:09;;;;;;;17.98;2.30;;;9.30;99.90;;;;;;5003729;28;20045;-59
2022/02/04 06:52:36;;;;;;;12.02;1.92;;;9.30;99.90;;;;;;5033918;28;20794;-60
2022/02/04 06:55:05;;;;;;;13.00;1.70;;;9.30;99.90;;;;;;5030618;28;20057;-60
2022/02/04 06:57:32;;;;;;;10.27;2.05;;;9.30;99.90;;;;;;5044589;28;20041;-59
2022/02/04 06:59:59;;;;;;;15.38;2.33;;;9.40;99.90;;;;;;5034587;28;20493;-59
2022/02/04 07:02:27;;;;;;;13.05;3.22;;;9.30;99.90;;;;;;5035248;28;20045;-59
2022/02/04 07:04:54;;;;;;;7.82;2.00;;;9.40;99.90;;;;;;5037125;28;20045;-59
2022/02/04 07:07:21;;;;;;;11.65;1.90;;;9.40;99.90;;;;;;5040867;28;20064;-59
2022/02/04 07:09:57;;;;;;;13.63;2.95;;;9.40;99.90;;;;;;5035999;28;20493;-59
2022/02/04 07:12:35;;;;;;;14.30;2.45;;;9.40;99.90;;;;;;5039237;28;20079;-59
2022/02/04 07:15:23;;;;;;;13.25;2.45;;;9.40;99.90;;;;;;5030266;28;20094;-59
2022/02/04 07:18:00;;;;;;;17.13;2.17;;;9.40;99.90;;;;;;5039463;28;20049;-60
2022/02/04 07:20:26;;;;;;;16.27;4.35;;;9.50;99.90;;;;;;5027586;28;20111;-60
2022/02/04 07:22:53;;;;;;;21.63;2.38;;;9.50;99.80;;;;;;5037390;28;20068;-59
2022/02/04 07:25:20;;;;;;;12.15;2.58;;;9.50;99.80;;;;;;5026754;28;20073;-58
2022/02/04 07:27:47;;;;;;;8.00;2.15;;;9.50;99.80;;;;;;5038884;28;20103;-60
2022/02/04 07:30:34;;;;;;;8.95;2.15;;;9.50;99.70;;;;;;5038687;28;20056;-60
2022/02/04 07:33:14;;;;;;;17.85;3.83;;;9.50;99.80;;;;;;5025723;28;20107;-59
2022/02/04 07:41:06;;;;;;;17.75;3.67;;;9.50;99.90;;;;;;5037725;28;20558;-59
2022/02/04 07:43:33;;;;;;;16.52;2.88;;;9.50;99.90;;;;;;5030886;28;20118;-60
2022/02/04 07:46:00;;;;;;;20.17;5.35;;;9.50;99.90;;;;;;5026236;28;20642;-60
2022/02/04 07:48:26;;;;;;;18.10;2.60;;;9.50;99.90;;;;;;5013826;28;20182;-60
2022/02/04 07:50:53;;;;;;;14.80;2.42;;;9.60;99.90;;;;;;5018459;28;20125;-60
2022/02/04 07:53:20;;;;;;;16.83;3.58;;;9.60;99.90;;;;;;5038016;28;20064;-60
2022/02/04 07:55:49;;;;;;;16.92;3.17;;;9.60;99.90;;;;;;5033577;28;20084;-60
2022/02/04 07:58:16;;;;;;;17.27;2.20;;;9.60;99.90;;;;;;5019668;28;20075;-60
2022/02/04 08:00:43;;;;;;;16.02;2.92;;;9.60;99.90;;;;;;5036829;28;20461;-59
2022/02/04 08:05:48;;;;;;;14.75;2.25;;;9.60;99.90;;;;;;5035903;28;20533;-60
2022/02/04 08:08:24;;;;;;;15.75;2.53;;;9.70;99.90;;;;;;5036234;28;20077;-60
2022/02/04 08:11:49;;;;;;;11.70;3.28;;;9.70;99.90;;;;;;5036208;28;20067;-60
2022/02/04 08:22:18;;;;;;;12.30;2.90;;;9.80;99.90;;;;;;5035171;28;20079;-60
2022/02/04 08:32:42;;;;;;;14.90;2.72;;;9.50;99.90;;;;;;5034083;28;20768;-60
2022/02/04 08:56:10;;;;;;;18.60;3.40;;;9.10;99.90;;;;;;5036754;28;20053;-57
2022/02/04 08:58:47;;;;;;;21.65;2.75;;;9.10;99.90;;;;;;5046650;28;20084;-59
2022/02/04 09:01:33;;;;;;;19.30;3.80;;;9.10;99.90;;;;;;5039252;28;20064;-60
2022/02/04 09:04:06;;;;;;;17.92;1.40;;;9.00;99.90;;;;;;5021993;28;20049;-59
2022/02/04 09:06:40;;;;;;;6.78;0.90;;;8.70;99.90;;;;;;5029365;28;20072;-59
2022/02/04 09:09:13;;;;;;;8.57;1.35;;;7.80;99.90;;;;;;5047645;28;20044;-59
2022/02/04 09:11:44;;;;;;;13.52;2.08;;;7.40;99.90;;;;;;5039079;28;20095;-59
2022/02/04 09:19:28;;;;;;;5.75;1.17;;;6.70;99.90;;;;;;5041160;28;20041;-59
2022/02/04 09:24:24;;;;;;;1.17;0.57;;;6.50;99.90;;;;;;5047406;28;20126;-59
2022/02/04 09:26:51;;;;;;;1.20;0.73;;;6.50;99.90;;;;;;5040521;28;20124;-59
2022/02/04 09:29:18;;;;;;;3.05;1.08;;;6.40;99.90;;;;;;5039893;28;20045;-59
2022/02/04 09:31:45;;;;;;;5.38;0.85;;;6.20;99.90;;;;;;5042382;28;20108;-59
2022/02/04 09:34:12;;;;;;;2.65;1.20;;;6.10;99.90;;;;;;5027767;28;20092;-59
2022/02/04 09:36:38;;;;;;;5.88;1.17;;;6.00;99.90;;;;;;5011364;28;20084;-59
2022/02/04 09:39:06;;;;;;;2.35;1.30;;;5.90;99.90;;;;;;5011239;28;20145;-59
2022/02/04 09:41:33;;;;;;;1.73;0.98;;;5.80;99.90;;;;;;5033129;28;20159;-59
2022/02/04 09:44:00;;;;;;;3.63;0.63;;;5.70;99.90;;;;;;5045014;28;20056;-60
2022/02/04 09:46:34;;;;;;;0.63;0.57;;;5.60;99.90;;;;;;5035938;28;20045;-59
2022/02/04 09:49:02;;;;;;;1.50;0.65;;;5.60;99.90;;;;;;5039869;28;20049;-61
2022/02/04 09:51:51;;;;;;;1.92;0.63;;;5.40;99.90;;;;;;5031165;28;20116;-60
2022/02/04 10:06:49;;;;;;;3.53;0.80;;;4.90;99.90;;;;;;5045147;28;20056;-60
2022/02/04 10:12:07;;;;;;;3.20;0.70;;;4.80;99.90;;;;;;5013377;28;20048;-59
2022/02/04 10:17:12;;;;;;;4.15;1.30;;;4.60;99.90;;;;;;5022111;28;20077;-60
2022/02/04 10:22:21;;;;;;;1.83;0.98;;;4.60;99.90;;;;;;5045295;28;20080;-59
2022/02/04 10:25:04;;;;;;;3.80;0.75;;;4.70;99.90;;;;;;5039370;28;20137;-60
2022/02/04 10:27:32;;;;;;;1.67;0.75;;;4.60;99.90;;;;;;5042486;28;20099;-59
2022/02/04 10:30:14;;;;;;;2.30;1.70;;;4.70;99.90;;;;;;5034576;28;20091;-59
2022/02/04 10:32:48;;;;;;;1.35;0.70;;;4.80;99.90;;;;;;5031347;28;20077;-59
2022/02/04 10:35:28;;;;;;;5.13;0.80;;;4.90;99.90;;;;;;5039834;28;20130;-59
2022/02/04 10:38:18;;;;;;;0.95;0.50;;;4.60;99.90;;;;;;5026889;28;20041;-59
2022/02/04 10:41:02;;;;;;;2.78;0.70;;;4.50;99.90;;;;;;5031302;28;20049;-59
2022/02/04 10:46:17;;;;;;;2.83;0.52;;;4.60;99.90;;;;;;5043579;28;20048;-58
2022/02/04 11:55:00;;;;;;;2.30;1.60;;;4.80;99.90;;;;;;5037875;28;20147;-60
2022/02/04 11:57:29;;;;;;;2.88;1.55;;;4.80;99.90;;;;;;5034206;28;20037;-59
2022/02/04 11:59:59;;;;;;;1.70;0.80;;;4.90;99.90;;;;;;5034697;28;20076;-58
2022/02/04 12:02:26;;;;;;;1.40;1.00;;;4.90;99.90;;;;;;5044281;28;20037;-60
2022/02/04 12:05:04;;;;;;;3.95;1.15;;;4.90;99.90;;;;;;5040387;28;20049;-59
2022/02/04 12:07:34;;;;;;;1.80;1.27;;;5.00;99.90;;;;;;5038820;28;20120;-59
2022/02/04 12:10:02;;;;;;;1.90;1.33;;;4.90;99.90;;;;;;5040503;28;20080;-58
2022/02/04 12:12:58;;;;;;;4.38;1.83;;;4.90;99.90;;;;;;5033066;28;20072;-58
2022/02/04 12:15:49;;;;;;;4.05;1.50;;;5.00;99.90;;;;;;5031608;28;20136;-59
2022/02/04 12:18:20;;;;;;;2.65;1.70;;;5.20;99.90;;;;;;5048259;28;20045;-59
2022/02/04 12:20:53;;;;;;;3.83;1.58;;;5.20;99.90;;;;;;5037912;28;20092;-58
2022/02/04 12:23:29;;;;;;;2.35;1.40;;;5.20;99.90;;;;;;5047067;28;20045;-59
2022/02/04 12:26:04;;;;;;;7.57;2.55;;;5.30;99.90;;;;;;5040863;28;20060;-58
2022/02/04 12:28:37;;;;;;;2.85;1.20;;;5.30;99.90;;;;;;5040941;28;20657;-57
2022/02/04 12:31:11;;;;;;;1.23;1.00;;;5.30;99.90;;;;;;5039450;28;20076;-59
2022/02/04 12:33:48;;;;;;;7.28;1.50;;;5.40;99.90;;;;;;5037691;28;20084;-59
2022/02/04 12:36:23;;;;;;;2.20;0.82;;;5.40;99.90;;;;;;5041351;28;20055;-57
2022/02/04 12:38:52;;;;;;;1.90;1.00;;;5.40;99.90;;;;;;5032194;28;21765;-60
2022/02/04 12:41:23;;;;;;;3.33;1.50;;;5.40;99.90;;;;;;5041771;28;20083;-60
2022/02/04 12:43:52;;;;;;;5.75;1.58;;;5.40;99.90;;;;;;5037557;28;20135;-58
2022/02/04 12:46:19;;;;;;;2.78;1.60;;;5.50;99.90;;;;;;5048378;28;20436;-59
2022/02/04 12:48:59;;;;;;;2.92;1.23;;;5.60;99.90;;;;;;5014868;28;20053;-59
2022/02/04 12:51:47;;;;;;;1.83;1.10;;;5.80;99.90;;;;;;5038616;28;20060;-59
2022/02/04 12:54:24;;;;;;;0.88;0.63;;;5.90;99.90;;;;;;5032666;28;20095;-58
2022/02/04 12:59:56;;;;;;;6.00;1.70;;;6.00;99.90;;;;;;5034476;28;20221;-59
2022/02/04 13:10:26;;;;;;;2.92;1.42;;;5.90;99.80;;;;;;5018339;28;20055;-58
2022/02/04 13:13:01;;;;;;;8.77;1.00;;;6.10;99.90;;;;;;5034307;28;20084;-59
2022/02/04 13:15:29;;;;;;;2.38;0.90;;;6.10;99.90;;;;;;5039364;28;20041;-59
2022/02/04 13:17:57;;;;;;;1.42;0.60;;;6.20;99.00;;;;;;5034430;28;20498;-59
2022/02/04 13:20:24;;;;;;;6.63;0.80;;;6.20;98.70;;;;;;5036546;28;20072;-60
2022/02/04 13:22:59;;;;;;;8.95;0.93;;;6.20;98.30;;;;;;5033747;28;20040;-60
2022/02/04 13:25:31;;;;;;;3.03;0.63;;;6.20;98.60;;;;;;5036008;28;20092;-59
2022/02/04 13:27:59;;;;;;;6.57;1.00;;;6.20;97.90;;;;;;5029793;28;20041;-59
2022/02/04 13:30:26;;;;;;;5.78;0.75;;;6.20;98.40;;;;;;5036134;28;20068;-58
2022/02/04 13:32:53;;;;;;;7.53;1.15;;;6.20;97.40;;;;;;5038143;28;20187;-58
2022/02/04 13:35:32;;;;;;;5.00;0.88;;;6.30;99.20;;;;;;5018182;28;20080;-62
2022/02/04 13:38:03;;;;;;;22.00;3.40;;;6.40;98.10;;;;;;5030385;28;20453;-59
2022/02/04 13:40:58;;;;;;;5.38;2.00;;;6.50;98.70;;;;;;5038457;28;20107;-59
2022/02/04 13:43:34;;;;;;;7.07;1.10;;;6.40;98.10;;;;;;5037533;28;20102;-59
2022/02/04 13:46:27;;;;;;;2.20;1.17;;;6.50;98.30;;;;;;5018788;28;20162;-59
2022/02/04 13:49:05;;;;;;;10.43;1.50;;;6.60;96.20;;;;;;5037746;28;20335;-59
2022/02/04 13:51:52;;;;;;;1.40;0.50;;;6.60;96.90;;;;;;5011082;28;20131;-59
2022/02/04 13:57:56;;;;;;;5.82;1.33;;;6.70;96.80;;;;;;5020919;28;20100;-58
2022/02/04 14:00:31;;;;;;;5.23;0.90;;;6.70;96.50;;;;;;5029296;28;20095;-59
2022/02/04 14:03:26;;;;;;;4.22;0.77;;;6.90;97.30;;;;;;5035063;28;20550;-59
2022/02/04 14:06:03;;;;;;;7.63;1.10;;;7.10;96.40;;;;;;5024274;28;20136;-58
2022/02/04 14:08:34;;;;;;;6.80;2.05;;;7.20;95.70;;;;;;5034487;28;20099;-59
2022/02/04 14:11:05;;;;;;;6.45;1.98;;;7.40;95.90;;;;;;5013467;28;20171;-59
2022/02/04 14:13:53;;;;;;;6.65;1.88;;;7.40;94.70;;;;;;5034639;28;20045;-59
2022/02/04 14:16:20;;;;;;;5.25;1.17;;;7.40;94.80;;;;;;5040784;28;20656;-59
2022/02/04 14:18:47;;;;;;;9.43;1.50;;;7.30;92.90;;;;;;5047204;28;20048;-59
2022/02/04 14:21:16;;;;;;;14.32;1.85;;;7.30;95.00;;;;;;5040197;28;20080;-59
2022/02/04 14:23:49;;;;;;;6.43;1.20;;;7.40;95.20;;;;;;5038651;28;20029;-59
2022/02/04 14:26:22;;;;;;;3.33;1.38;;;7.40;94.90;;;;;;5037684;28;20638;-60
2022/02/04 14:31:31;;;;;;;7.53;1.90;;;7.50;96.00;;;;;;5033923;28;20093;-59
2022/02/04 14:36:53;;;;;;;14.32;1.67;;;7.40;93.00;;;;;;5024302;28;20047;-59
2022/02/04 14:53:40;;;;;;;8.18;1.40;;;7.70;93.90;;;;;;5031303;28;20544;-59
2022/02/04 15:01:47;;;;;;;;;;;7.80;91.80;;;;;;5036480;28;20071;-59
2022/02/04 15:04:24;;;;;;;9.75;2.60;;;7.80;91.60;;;;;;5028543;28;19970;-58
2022/02/04 15:06:58;;;;;;;7.60;1.40;;;7.80;91.70;;;;;;5035228;28;20129;-58
2022/02/04 15:09:25;;;;;;;3.33;1.05;;;7.90;93.40;;;;;;5016648;28;20180;-59
2022/02/04 15:11:51;;;;;;;10.20;1.42;;;7.80;90.30;;;;;;5042477;28;20049;-59
2022/02/04 15:14:19;;;;;;;5.43;1.02;;;7.80;91.30;;;;;;5029703;28;20198;-59
2022/02/04 15:16:46;;;;;;;24.15;2.10;;;7.70;92.30;;;;;;5041610;28;20144;-59
2022/02/04 15:19:13;;;;;;;8.93;1.25;;;7.70;91.60;;;;;;5014739;28;20099;-59
2022/02/04 15:21:45;;;;;;;5.75;1.17;;;7.70;91.90;;;;;;5023342;28;20105;-59
2022/02/04 15:24:12;;;;;;;7.00;1.30;;;7.50;90.60;;;;;;5033919;28;20140;-59
2022/02/04 15:26:39;;;;;;;10.02;3.10;;;7.60;93.10;;;;;;5034337;28;20404;-59
2022/02/04 15:29:13;;;;;;;9.13;1.80;;;7.70;93.00;;;;;;5036484;28;20083;-58
2022/02/04 15:31:47;;;;;;;8.63;0.85;;;7.90;91.20;;;;;;5037607;28;20044;-60
2022/02/04 15:34:15;;;;;;;;;;;8.00;88.20;;;;;;5039491;28;20049;-58
2022/02/04 15:36:45;;;;;;;9.20;1.42;;;8.20;88.30;;;;;;5037686;28;19952;-58
2022/02/04 15:39:16;;;;;;;10.52;1.85;;;8.30;87.40;;;;;;4688179;28;9999938;-59
2022/02/04 15:41:45;;;;;;;11.70;2.15;;;8.90;89.10;;;;;;5039331;28;20052;-61
2022/02/04 15:54:37;;;;;;;4.35;0.90;;;8.40;87.00;;;;;;5037806;28;20045;-60
2022/02/04 15:57:31;;;;;;;7.80;1.90;;;8.10;87.50;;;;;;5045893;28;20111;-60
2022/02/04 16:00:17;;;;;;;5.82;1.73;;;7.90;88.30;;;;;;5044896;28;20484;-60
2022/02/04 16:05:31;;;;;;;6.47;1.73;;;7.90;90.10;;;;;;5043448;28;20072;-59
2022/02/04 16:07:58;;;;;;;9.07;1.88;;;7.80;89.20;;;;;;5023118;28;20115;-59
2022/02/04 16:10:36;;;;;;;10.35;1.42;;;7.80;90.30;;;;;;5041451;28;20213;-59
2022/02/04 16:13:25;;;;;;;11.45;2.05;;;7.70;90.80;;;;;;5026594;28;20235;-59
2022/02/04 16:16:09;;;;;;;24.02;1.80;;;7.60;90.60;;;;;;5039275;28;20146;-60
2022/02/04 16:18:44;;;;;;;10.52;2.70;;;7.60;91.00;;;;;;5036711;28;20142;-60
2022/02/04 16:21:23;;;;;;;9.68;1.70;;;7.60;91.20;;;;;;5027239;28;20053;-61
2022/02/04 16:28:49;;;;;;;14.23;1.15;;;7.40;90.80;;;;;;5033292;28;20128;-58
2022/02/04 16:31:17;;;;;;;3.70;1.27;;;7.40;91.10;;;;;;5027079;28;20551;-60
2022/02/04 16:33:46;;;;;;;7.15;1.35;;;7.40;91.30;;;;;;5033315;28;20168;-60
2022/02/04 16:36:18;;;;;;;8.70;1.13;;;7.40;91.80;;;;;;5039879;28;20045;-59
2022/02/04 16:38:52;;;;;;;3.50;1.10;;;7.40;91.10;;;;;;5035972;28;20085;-59
2022/02/04 16:41:26;;;;;;;5.57;1.17;;;7.40;90.70;;;;;;5037044;28;20408;-59
2022/02/04 16:43:53;;;;;;;6.95;1.67;;;7.40;91.30;;;;;;5035662;28;20047;-59
2022/02/04 16:46:20;;;;;;;13.95;4.03;;;7.30;90.20;;;;;;5036332;28;20492;-59
2022/02/04 16:48:46;;;;;;;2.13;0.82;;;7.30;88.70;;;;;;5036207;28;20145;-59
2022/02/04 16:51:13;;;;;;;6.65;1.20;;;7.30;90.50;;;;;;5032140;28;20064;-59
2022/02/04 16:53:43;;;;;;;9.85;1.60;;;7.30;90.40;;;;;;5031094;28;20555;-59
2022/02/04 16:56:10;;;;;;;13.45;2.72;;;7.30;91.40;;;;;;5015062;28;20107;-59
2022/02/04 16:58:48;;;;;;;10.30;1.95;;;7.30;91.70;;;;;;5039753;28;20130;-61
2022/02/04 17:01:20;;;;;;;18.27;2.03;;;7.20;91.80;;;;;;5019427;28;20075;-60
2022/02/04 17:03:47;;;;;;;12.23;1.73;;;7.20;92.30;;;;;;5029606;28;20198;-60
2022/02/04 17:06:14;;;;;;;12.57;2.53;;;7.20;92.00;;;;;;5021980;28;20055;-60
2022/02/04 17:08:49;;;;;;;16.67;2.55;;;7.10;92.40;;;;;;5036992;28;20091;-59
2022/02/04 17:11:34;;;;;;;30.50;10.10;;;7.10;92.10;;;;;;5034993;28;20131;-61
2022/02/04 17:14:01;;;;;;;23.65;7.68;;;7.10;92.50;;;;;;5027986;28;20523;-60
2022/02/04 17:16:28;;;;;;;5.75;2.13;;;7.10;92.80;;;;;;5037556;28;20053;-58
2022/02/04 17:18:58;;;;;;;14.27;2.33;;;7.00;92.20;;;;;;5032059;28;20083;-60
2022/02/04 17:21:29;;;;;;;9.73;1.88;;;7.00;92.50;;;;;;5007983;28;20532;-58
2022/02/04 17:23:58;;;;;;;4.90;1.88;;;6.90;92.60;;;;;;5034697;28;20085;-58
2022/02/04 17:26:30;;;;;;;16.42;1.40;;;6.90;92.00;;;;;;5039059;28;20064;-61
2022/02/04 17:28:58;;;;;;;5.88;1.50;;;6.90;90.50;;;;;;4997947;28;20508;-59
2022/02/04 17:31:25;;;;;;;13.07;2.70;;;6.90;91.20;;;;;;5028031;28;20075;-58
2022/02/04 17:33:52;;;;;;;4.22;1.23;;;6.80;91.10;;;;;;5037962;28;20053;-59
2022/02/04 17:36:19;;;;;;;7.88;1.27;;;6.80;90.40;;;;;;5030219;28;20049;-60
2022/02/04 17:38:46;;;;;;;7.72;1.42;;;6.80;89.70;;;;;;5017199;28;20139;-59
2022/02/04 17:41:16;;;;;;;4.07;1.23;;;6.80;90.30;;;;;;5035363;28;20136;-59
2022/02/04 17:43:47;;;;;;;13.18;1.50;;;6.70;90.00;;;;;;5042944;28;20665;-59
2022/02/04 17:46:15;;;;;;;9.95;1.85;;;6.80;90.10;;;;;;5035971;28;20479;-58
2022/02/04 17:48:57;;;;;;;17.13;1.38;;;6.70;90.60;;;;;;5035913;28;20072;-59
2022/02/04 17:54:18;;;;;;;6.45;1.20;;;6.60;91.30;;;;;;5011907;28;20072;-62
2022/02/04 17:57:31;;;;;;;9.27;2.05;;;6.60;91.20;;;;;;5016582;28;20085;-60
2022/02/04 18:02:30;;;;;;;5.38;1.58;;;6.50;91.40;;;;;;5025860;28;20092;-60
2022/02/04 18:05:23;;;;;;;11.75;1.30;;;6.50;91.60;;;;;;5041127;28;20075;-59
2022/02/04 18:07:50;;;;;;;3.53;0.95;;;6.50;91.20;;;;;;5035686;28;20118;-58
2022/02/04 18:10:17;;;;;;;4.72;1.10;;;6.50;90.70;;;;;;5028977;28;20053;-58
2022/02/04 18:12:44;;;;;;;13.38;1.20;;;6.50;90.90;;;;;;5038790;28;20103;-58
2022/02/04 18:15:11;;;;;;;4.95;1.35;;;6.40;91.20;;;;;;5039808;28;20056;-59
2022/02/04 18:17:39;;;;;;;15.05;1.88;;;6.40;90.90;;;;;;5025901;28;20483;-58
2022/02/04 18:20:06;;;;;;;14.40;1.90;;;6.40;90.40;;;;;;5036011;28;20457;-58
2022/02/04 18:22:33;;;;;;;12.48;2.38;;;6.40;90.10;;;;;;5042617;28;20741;-59
2022/02/04 18:25:00;;;;;;;10.10;2.67;;;6.30;89.80;;;;;;5032318;28;20555;-64
2022/02/04 18:27:26;;;;;;;8.35;1.60;;;6.30;91.10;;;;;;5037365;28;20045;-59
2022/02/04 18:29:55;;;;;;;16.25;1.98;;;6.30;90.60;;;;;;5014203;28;20126;-60
2022/02/04 18:32:23;;;;;;;15.95;2.53;;;6.30;90.90;;;;;;5035481;28;20057;-60
2022/02/04 18:34:51;;;;;;;10.77;1.83;;;6.20;90.90;;;;;;5032159;28;20098;-60
2022/02/04 18:37:19;;;;;;;6.82;1.42;;;6.20;90.70;;;;;;5034409;28;20160;-59
2022/02/04 18:45:11;;;;;;;5.30;1.27;;;6.20;91.80;;;;;;5034152;28;20520;-60
2022/02/04 18:47:54;;;;;;;1.95;1.17;;;6.10;90.70;;;;;;5033658;28;20057;-60
2022/02/04 18:50:31;;;;;;;6.15;1.60;;;6.20;91.40;;;;;;5032769;28;21381;-60
2022/02/04 18:58:15;;;;;;;10.50;3.42;;;6.10;90.90;;;;;;5033863;28;20049;-58
2022/02/04 19:00:42;;;;;;;7.85;1.42;;;6.10;91.50;;;;;;5017524;28;20041;-58
2022/02/04 19:03:16;;;;;;;13.13;2.03;;;6.10;91.60;;;;;;5032301;28;20103;-59
2022/02/04 19:05:58;;;;;;;9.20;1.45;;;6.10;91.80;;;;;;5032613;28;20089;-57
2022/02/04 19:08:32;;;;;;;6.47;1.70;;;6.00;91.40;;;;;;5036722;28;20041;-58
2022/02/04 19:10:59;;;;;;;17.83;2.97;;;6.00;91.10;;;;;;5033949;28;20084;-58
2022/02/04 19:13:36;;;;;;;13.85;2.65;;;6.00;91.40;;;;;;5033970;28;20069;-59
2022/02/04 19:16:20;;;;;;;9.07;1.45;;;6.00;91.70;;;;;;5030579;28;20080;-57
2022/02/04 19:21:37;;;;;;;12.77;2.45;;;6.00;91.60;;;;;;5026643;28;20143;-56
2022/02/04 19:24:04;;;;;;;9.60;2.58;;;5.90;91.20;;;;;;5026722;28;20084;-57
2022/02/04 19:26:31;;;;;;;5.47;2.42;;;5.90;91.40;;;;;;5035914;28;20141;-57
2022/02/04 19:28:59;;;;;;;11.20;3.15;;;5.90;91.50;;;;;;5031552;28;20099;-57
2022/02/04 19:31:26;;;;;;;7.32;1.85;;;5.90;91.30;;;;;;5031255;28;20141;-57
2022/02/04 19:33:53;;;;;;;14.15;2.53;;;5.90;90.70;;;;;;5028636;28;20080;-59
2022/02/04 19:36:20;;;;;;;12.13;2.05;;;5.90;91.30;;;;;;5027521;28;20522;-57
2022/02/04 19:38:49;;;;;;;18.33;2.28;;;5.90;91.80;;;;;;5033540;28;20049;-57
2022/02/04 19:41:20;;;;;;;10.38;1.60;;;5.80;91.30;;;;;;5033910;28;20311;-57
2022/02/04 19:43:50;;;;;;;8.95;1.15;;;5.80;91.70;;;;;;5029197;28;20061;-57
2022/02/04 19:46:22;;;;;;;10.55;1.85;;;5.80;91.50;;;;;;5030803;28;20081;-58